createdAt,value
2024-02-24T00:00:32.883Z,15.40
2024-02-24T00:03:00.043Z,14.98
2024-02-24T00:05:28.258Z,14.13
2024-02-24T00:07:55.552Z,14.63
2024-02-24T00:10:23.553Z,14.63
2024-02-24T00:12:50.825Z,16.05
2024-02-24T00:15:18.089Z,13.20
2024-02-24T00:17:45.277Z,15.13
2024-02-24T00:20:12.988Z,14.68
2024-02-24T00:22:40.443Z,14.48
2024-02-24T00:25:07.834Z,14.23
2024-02-24T00:27:35.001Z,15.05
2024-02-24T00:30:02.296Z,14.00
2024-02-24T00:32:29.532Z,14.15
2024-02-24T00:34:56.736Z,13.98
2024-02-24T00:37:23.940Z,14.07
2024-02-24T00:39:53.078Z,12.82
2024-02-24T00:42:20.235Z,13.70
2024-02-24T00:44:47.526Z,13.88
2024-02-24T00:47:14.688Z,13.98
2024-02-24T00:49:41.824Z,13.75
2024-02-24T00:52:09.011Z,13.43
2024-02-24T00:54:36.157Z,12.82
2024-02-24T00:57:03.318Z,12.73
2024-02-24T00:59:30.651Z,13.18
2024-02-24T01:01:57.796Z,12.65
2024-02-24T01:04:26.171Z,12.48
2024-02-24T01:06:53.950Z,13.15
2024-02-24T01:09:22.205Z,14.27
2024-02-24T01:11:49.507Z,13.85
2024-02-24T01:14:16.850Z,13.38
2024-02-24T01:16:45.671Z,12.30
2024-02-24T01:19:13.136Z,13.77
2024-02-24T01:21:43.707Z,13.18
2024-02-24T01:24:11.121Z,12.77
2024-02-24T01:26:38.386Z,12.95
2024-02-24T01:29:05.681Z,11.88
2024-02-24T01:31:32.997Z,13.38
2024-02-24T01:34:00.275Z,12.05
2024-02-24T01:36:27.550Z,12.20
2024-02-24T01:38:57.111Z,13.38
2024-02-24T01:41:24.300Z,12.80
2024-02-24T01:43:51.550Z,11.73
2024-02-24T01:46:18.701Z,11.02
2024-02-24T01:48:47.202Z,11.13
2024-02-24T01:51:16.777Z,11.32
2024-02-24T01:53:44.125Z,11.15
2024-02-24T01:56:11.869Z,12.50
2024-02-24T01:58:39.823Z,11.70
2024-02-24T02:01:07.777Z,11.27
2024-02-24T02:03:35.249Z,11.48
2024-02-24T02:06:03.682Z,11.18
2024-02-24T02:08:31.050Z,12.20
2024-02-24T02:10:58.509Z,11.90
2024-02-24T02:13:26.373Z,11.50
2024-02-24T02:15:54.551Z,11.65
2024-02-24T02:18:22.278Z,11.38
2024-02-24T02:20:53.919Z,11.38
2024-02-24T02:23:21.367Z,11.68
2024-02-24T02:25:48.772Z,12.68
2024-02-24T02:28:16.091Z,11.45
2024-02-24T02:30:43.290Z,11.40
2024-02-24T02:33:10.811Z,12.07
2024-02-24T02:35:38.484Z,11.77
2024-02-24T02:38:09.399Z,12.80
2024-02-24T02:40:37.081Z,12.50
2024-02-24T02:43:04.583Z,12.88
2024-02-24T02:45:31.708Z,13.57
2024-02-24T02:47:59.002Z,13.05
2024-02-24T02:50:26.305Z,12.57
2024-02-24T02:52:53.466Z,13.52
2024-02-24T02:55:22.020Z,13.32
2024-02-24T02:57:50.149Z,13.10
2024-02-24T03:00:17.649Z,12.70
2024-02-24T03:02:44.989Z,12.82
2024-02-24T03:05:12.423Z,13.60
2024-02-24T03:07:39.639Z,14.07
2024-02-24T03:10:07.414Z,13.52
2024-02-24T03:12:34.817Z,13.75
2024-02-24T03:15:02.110Z,14.43
2024-02-24T03:17:29.320Z,12.68
2024-02-24T03:19:56.591Z,12.98
2024-02-24T03:22:23.828Z,14.10
2024-02-24T03:24:51.070Z,13.95
2024-02-24T03:27:18.320Z,15.02
2024-02-24T03:29:45.551Z,13.55
2024-02-24T03:32:12.753Z,13.82
2024-02-24T03:34:40.669Z,13.27
2024-02-24T03:37:07.825Z,14.60
2024-02-24T03:39:34.991Z,13.80
2024-02-24T03:42:02.226Z,12.82
2024-02-24T03:44:29.428Z,13.35
2024-02-24T03:46:56.582Z,13.90
2024-02-24T03:49:24.187Z,13.65
2024-02-24T03:51:51.359Z,13.15
2024-02-24T03:54:18.575Z,13.35
2024-02-24T03:56:45.906Z,13.43
2024-02-24T03:59:13.246Z,13.50
2024-02-24T04:01:42.176Z,12.45
2024-02-24T04:04:09.568Z,12.45
2024-02-24T04:06:36.739Z,12.50
2024-02-24T04:09:04.884Z,12.10
2024-02-24T04:11:32.284Z,12.23
2024-02-24T04:13:59.555Z,12.52
2024-02-24T04:16:26.705Z,12.48
2024-02-24T04:18:54.000Z,12.60
2024-02-24T04:21:22.222Z,12.50
2024-02-24T04:23:49.410Z,12.10
2024-02-24T04:26:16.953Z,11.77
2024-02-24T04:28:44.125Z,12.38
2024-02-24T04:31:11.253Z,12.50
2024-02-24T04:33:38.674Z,11.30
2024-02-24T04:36:06.180Z,11.55
2024-02-24T04:38:33.349Z,12.27
2024-02-24T04:41:00.845Z,11.93
2024-02-24T04:43:28.032Z,10.82
2024-02-24T04:45:55.284Z,11.57
2024-02-24T04:48:22.697Z,10.98
2024-02-24T04:50:50.059Z,11.82
2024-02-24T04:53:17.390Z,11.48
2024-02-24T04:55:44.682Z,11.80
2024-02-24T04:58:11.920Z,11.25
2024-02-24T05:00:39.159Z,10.60
2024-02-24T05:03:06.379Z,10.95
2024-02-24T05:05:34.126Z,11.45
2024-02-24T05:08:01.413Z,10.82
2024-02-24T05:10:28.650Z,11.40
2024-02-24T05:12:56.351Z,11.93
2024-02-24T05:15:23.575Z,10.55
2024-02-24T05:17:51.099Z,11.45
2024-02-24T05:20:18.468Z,10.95
2024-02-24T05:22:45.626Z,10.52
2024-02-24T05:25:13.404Z,11.10
2024-02-24T05:27:40.590Z,11.00
2024-02-24T05:30:07.907Z,10.85
2024-02-24T05:32:35.214Z,11.25
2024-02-24T05:35:02.557Z,10.93
2024-02-24T05:37:29.752Z,11.15
2024-02-24T05:39:57.121Z,10.77
2024-02-24T05:42:24.363Z,9.82
2024-02-24T05:44:51.538Z,11.02
2024-02-24T05:47:19.123Z,10.93
2024-02-24T05:49:46.417Z,11.77
2024-02-24T05:52:13.671Z,9.82
2024-02-24T05:54:41.265Z,10.32
2024-02-24T05:57:08.807Z,9.75
2024-02-24T05:59:36.695Z,10.10
2024-02-24T06:02:04.708Z,9.00
2024-02-24T06:04:31.981Z,10.10
2024-02-24T06:06:59.166Z,10.68
2024-02-24T06:09:26.889Z,9.77
2024-02-24T06:11:54.137Z,10.85
2024-02-24T06:14:21.392Z,11.35
2024-02-24T06:16:48.616Z,9.90
2024-02-24T06:19:15.894Z,10.82
2024-02-24T06:21:43.364Z,10.88
2024-02-24T06:24:10.627Z,9.68
2024-02-24T06:26:37.931Z,10.27
2024-02-24T06:29:05.117Z,9.43
2024-02-24T06:31:32.337Z,10.30
2024-02-24T06:33:59.622Z,10.68
2024-02-24T06:36:26.903Z,9.65
2024-02-24T06:38:54.166Z,10.30
2024-02-24T06:41:25.108Z,10.07
2024-02-24T06:43:52.779Z,10.15
2024-02-24T06:46:20.056Z,10.15
2024-02-24T06:48:47.539Z,10.50
2024-02-24T06:51:15.211Z,10.02
2024-02-24T06:53:42.568Z,9.13
2024-02-24T06:56:10.219Z,9.95
2024-02-24T06:58:37.595Z,8.85
2024-02-24T07:01:04.964Z,10.45
2024-02-24T07:03:34.178Z,9.85
2024-02-24T07:06:04.634Z,9.07
2024-02-24T07:08:31.942Z,9.77
2024-02-24T07:10:59.240Z,8.60
2024-02-24T07:13:26.503Z,8.85
2024-02-24T07:15:53.675Z,9.18
2024-02-24T07:18:20.878Z,8.68
2024-02-24T07:20:48.568Z,9.10
2024-02-24T07:23:15.860Z,11.68
2024-02-24T07:25:43.116Z,10.20
2024-02-24T07:28:10.496Z,8.55
2024-02-24T07:30:37.809Z,8.13
2024-02-24T07:33:05.306Z,8.95
2024-02-24T07:35:32.871Z,8.07
2024-02-24T07:38:00.069Z,8.88
2024-02-24T07:40:27.211Z,7.30
2024-02-24T07:42:57.569Z,8.10
2024-02-24T07:45:26.560Z,7.97
2024-02-24T07:47:54.677Z,8.70
2024-02-24T07:50:22.391Z,7.82
2024-02-24T07:52:49.661Z,7.78
2024-02-24T07:55:16.931Z,7.60
2024-02-24T07:57:44.202Z,7.38
2024-02-24T08:00:12.046Z,7.32
2024-02-24T08:02:39.279Z,8.10
2024-02-24T08:05:06.749Z,8.63
2024-02-24T08:07:33.929Z,7.88
2024-02-24T08:10:01.163Z,8.02
2024-02-24T08:12:28.773Z,8.13
2024-02-24T08:14:56.132Z,7.57
2024-02-24T08:17:23.373Z,8.35
2024-02-24T08:19:50.676Z,8.68
2024-02-24T08:22:18.156Z,8.13
2024-02-24T08:24:45.361Z,10.80
2024-02-24T08:27:12.642Z,8.48
2024-02-24T08:29:39.861Z,8.02
2024-02-24T08:32:07.436Z,7.70
2024-02-24T08:34:34.643Z,8.38
2024-02-24T08:37:01.854Z,6.28
2024-02-24T08:39:29.028Z,7.90
2024-02-24T08:41:56.358Z,6.80
2024-02-24T08:44:23.675Z,6.78
2024-02-24T08:46:50.949Z,7.20
2024-02-24T08:49:18.231Z,7.53
2024-02-24T08:51:45.437Z,8.60
2024-02-24T08:54:12.652Z,7.00
2024-02-24T08:56:40.863Z,7.72
2024-02-24T08:59:08.077Z,6.93
2024-02-24T09:01:35.201Z,7.03
2024-02-24T09:04:04.452Z,7.43
2024-02-24T09:06:32.813Z,8.13
2024-02-24T09:09:01.821Z,7.40
2024-02-24T09:11:29.231Z,8.05
2024-02-24T09:13:56.404Z,8.13
2024-02-24T09:16:23.648Z,7.28
2024-02-24T09:18:50.934Z,7.60
2024-02-24T09:21:18.120Z,7.70
2024-02-24T09:23:45.326Z,7.22
2024-02-24T09:26:12.654Z,7.85
2024-02-24T09:28:39.813Z,7.78
2024-02-24T09:31:07.024Z,7.88
2024-02-24T09:33:34.395Z,8.07
2024-02-24T09:36:01.792Z,7.38
2024-02-24T09:38:29.010Z,8.10
2024-02-24T09:40:56.329Z,8.52
2024-02-24T09:43:23.995Z,9.02
2024-02-24T09:45:51.580Z,7.53
2024-02-24T09:48:20.252Z,8.15
2024-02-24T09:50:47.690Z,9.00
2024-02-24T09:53:14.939Z,8.18
2024-02-24T09:55:44.366Z,8.15
2024-02-24T09:58:12.675Z,8.93
2024-02-24T10:00:40.085Z,8.25
2024-02-24T10:03:07.687Z,7.78
2024-02-24T10:05:37.847Z,8.23
2024-02-24T10:08:05.315Z,7.55
2024-02-24T10:10:32.998Z,7.72
2024-02-24T10:13:02.874Z,8.20
2024-02-24T10:15:30.453Z,7.60
2024-02-24T10:17:59.162Z,7.53
2024-02-24T10:20:26.529Z,7.88
2024-02-24T10:22:53.919Z,7.55
2024-02-24T10:25:21.636Z,8.25
2024-02-24T10:27:49.128Z,10.05
2024-02-24T10:30:16.536Z,9.98
2024-02-24T10:32:44.582Z,8.18
2024-02-24T10:35:12.598Z,7.38
2024-02-24T10:37:56.992Z,8.50
2024-02-24T10:40:27.141Z,7.97
2024-02-24T10:42:55.507Z,8.05
2024-02-24T10:45:22.873Z,8.55
2024-02-24T10:47:52.498Z,8.60
2024-02-24T10:50:20.421Z,8.10
2024-02-24T10:52:48.584Z,7.65
2024-02-24T10:55:18.916Z,8.23
2024-02-24T10:57:48.507Z,7.18
2024-02-24T11:00:26.856Z,7.63
2024-02-24T11:02:54.106Z,7.65
2024-02-24T11:05:21.924Z,8.48
2024-02-24T11:07:49.248Z,8.82
2024-02-24T11:10:32.306Z,8.30
2024-02-24T11:13:01.310Z,8.00
2024-02-24T11:15:29.108Z,7.93
2024-02-24T11:18:00.184Z,7.78
2024-02-24T11:20:40.323Z,7.65
2024-02-24T11:23:23.167Z,7.30
2024-02-24T11:25:53.898Z,7.78
2024-02-24T11:28:24.281Z,7.53
2024-02-24T11:30:54.440Z,7.30
2024-02-24T11:33:27.855Z,7.43
2024-02-24T11:35:56.402Z,8.20
2024-02-24T11:38:26.926Z,8.00
2024-02-24T11:40:54.679Z,8.45
2024-02-24T11:43:21.966Z,7.68
2024-02-24T11:45:54.255Z,7.53
2024-02-24T11:48:21.945Z,7.15
2024-02-24T11:50:49.881Z,7.63
2024-02-24T11:53:18.600Z,7.28
2024-02-24T11:55:46.792Z,8.20
2024-02-24T11:58:14.622Z,7.30
2024-02-24T12:00:42.373Z,8.38
2024-02-24T12:03:14.287Z,7.50
2024-02-24T12:05:41.706Z,7.85
2024-02-24T12:08:20.112Z,7.93
2024-02-24T12:10:47.451Z,8.05
2024-02-24T12:13:15.143Z,7.35
2024-02-24T12:15:43.308Z,8.23
2024-02-24T12:18:10.598Z,7.90
2024-02-24T12:20:49.578Z,7.68
2024-02-24T12:23:20.394Z,8.30
2024-02-24T12:25:49.410Z,7.50
2024-02-24T12:28:17.182Z,6.88
2024-02-24T12:30:47.696Z,6.57
2024-02-24T12:33:18.051Z,7.30
2024-02-24T12:38:22.751Z,7.32
2024-02-24T12:40:50.036Z,7.95
2024-02-24T12:43:17.442Z,7.03
2024-02-24T12:45:45.307Z,6.88
2024-02-24T12:48:12.613Z,8.50
2024-02-24T12:50:39.981Z,7.63
2024-02-24T12:53:08.859Z,6.45
2024-02-24T12:55:36.410Z,7.72
2024-02-24T12:58:03.697Z,7.70
2024-02-24T13:00:31.020Z,7.93
2024-02-24T13:03:00.439Z,7.05
2024-02-24T13:05:28.083Z,6.97
2024-02-24T13:07:55.680Z,7.43
2024-02-24T13:10:23.037Z,7.32
2024-02-24T13:12:50.482Z,7.03
2024-02-24T13:15:17.871Z,7.03
2024-02-24T13:17:45.467Z,7.88
2024-02-24T13:20:12.838Z,7.70
2024-02-24T13:22:42.190Z,7.30
2024-02-24T13:25:10.374Z,7.20
2024-02-24T13:27:37.809Z,7.55
2024-02-24T13:30:06.117Z,7.97
2024-02-24T13:32:33.677Z,6.88
2024-02-24T13:35:00.988Z,7.28
2024-02-24T13:37:29.102Z,6.65
2024-02-24T13:39:56.491Z,7.13
2024-02-24T13:42:23.713Z,7.50
2024-02-24T13:44:51.093Z,7.28
2024-02-24T13:47:19.263Z,6.50
2024-02-24T13:49:46.596Z,7.55
2024-02-24T13:52:13.780Z,8.27
2024-02-24T13:54:41.070Z,8.20
2024-02-24T13:57:08.322Z,7.32
2024-02-24T13:59:35.507Z,8.15
2024-02-24T14:02:02.933Z,7.60
2024-02-24T14:04:30.139Z,7.82
2024-02-24T14:06:57.735Z,9.77
2024-02-24T14:09:24.938Z,10.65
2024-02-24T14:11:54.133Z,11.57
2024-02-24T14:14:21.437Z,10.85
2024-02-24T14:16:48.752Z,10.73
2024-02-24T14:19:16.645Z,9.90
2024-02-24T14:21:44.833Z,9.68
2024-02-24T14:24:14.872Z,8.75
2024-02-24T14:26:42.627Z,8.73
2024-02-24T14:29:09.798Z,8.82
2024-02-24T14:31:37.106Z,7.72
2024-02-24T14:34:04.511Z,8.43
2024-02-24T14:36:31.902Z,7.57
2024-02-24T14:39:00.553Z,8.65
2024-02-24T14:41:28.626Z,8.07
2024-02-24T14:43:55.931Z,8.55
2024-02-24T14:46:23.123Z,8.65
2024-02-24T14:48:50.563Z,8.38
2024-02-24T14:51:19.285Z,8.80
2024-02-24T14:53:48.149Z,8.32
2024-02-24T14:56:15.397Z,7.53
2024-02-24T14:58:42.579Z,7.93
2024-02-24T15:01:13.332Z,7.57
2024-02-24T15:03:45.391Z,8.75
2024-02-24T15:06:13.458Z,8.73
2024-02-24T15:08:40.997Z,8.75
2024-02-24T15:11:08.271Z,8.38
2024-02-24T15:13:37.693Z,9.02
2024-02-24T15:16:05.488Z,8.30
2024-02-24T15:18:32.816Z,8.85
2024-02-24T15:21:00.703Z,7.93
2024-02-24T15:23:27.990Z,7.82
2024-02-24T15:25:55.432Z,7.75
2024-02-24T15:28:23.353Z,8.20
2024-02-24T15:30:50.545Z,7.63
2024-02-24T15:33:17.806Z,7.95
2024-02-24T15:35:45.106Z,7.82
2024-02-24T15:38:12.444Z,8.38
2024-02-24T15:40:42.165Z,7.88
2024-02-24T15:43:12.464Z,8.57
2024-02-24T15:45:41.085Z,8.82
2024-02-24T15:48:08.689Z,8.55
2024-02-24T15:50:36.234Z,8.48
2024-02-24T15:53:03.410Z,8.15
2024-02-24T15:55:30.547Z,8.63
2024-02-24T15:57:58.852Z,9.00
2024-02-24T16:00:26.021Z,9.07
2024-02-24T16:02:53.295Z,8.52
2024-02-24T16:05:22.986Z,8.35
2024-02-24T16:07:50.629Z,8.52
2024-02-24T16:10:18.268Z,10.80
2024-02-24T16:12:46.283Z,7.57
2024-02-24T16:15:13.530Z,8.63
2024-02-24T16:17:41.265Z,7.93
2024-02-24T16:20:09.399Z,8.23
2024-02-24T16:22:36.645Z,7.50
2024-02-24T16:25:03.817Z,8.57
2024-02-24T16:27:31.019Z,8.13
2024-02-24T16:29:58.495Z,8.15
2024-02-24T16:32:25.768Z,8.57
2024-02-24T16:34:53.530Z,7.90
2024-02-24T16:37:23.276Z,7.93
2024-02-24T16:39:51.033Z,8.02
2024-02-24T16:42:21.394Z,8.02
2024-02-24T16:44:48.606Z,8.00
2024-02-24T16:47:16.288Z,7.95
2024-02-24T16:49:43.628Z,7.88
2024-02-24T16:52:10.880Z,7.80
2024-02-24T16:54:39.374Z,8.25
2024-02-24T16:57:06.946Z,7.82
2024-02-24T16:59:34.195Z,7.72
2024-02-24T17:02:01.416Z,7.22
2024-02-24T17:04:29.804Z,8.00
2024-02-24T17:06:57.070Z,7.47
2024-02-24T17:09:24.305Z,7.57
2024-02-24T17:11:53.066Z,7.15
2024-02-24T17:14:20.360Z,7.80
2024-02-24T17:16:47.505Z,7.88
2024-02-24T17:19:15.009Z,8.63
2024-02-24T17:21:42.320Z,7.90
2024-02-24T17:24:09.564Z,7.32
2024-02-24T17:26:36.967Z,7.22
2024-02-24T17:29:04.135Z,7.15
2024-02-24T17:31:31.302Z,8.75
2024-02-24T17:33:58.670Z,9.00
2024-02-24T17:36:25.975Z,9.77
2024-02-24T17:38:53.151Z,8.77
2024-02-24T17:41:20.495Z,8.27
2024-02-24T17:43:47.702Z,8.77
2024-02-24T17:46:16.334Z,8.55
2024-02-24T17:48:43.815Z,8.70
2024-02-24T17:51:11.056Z,8.30
2024-02-24T17:53:38.260Z,8.00
2024-02-24T17:56:06.083Z,8.57
2024-02-24T17:58:40.695Z,8.65
2024-02-24T18:01:14.258Z,7.88
2024-02-24T18:03:41.739Z,7.53
2024-02-24T18:06:09.143Z,8.38
2024-02-24T18:08:36.646Z,8.90
2024-02-24T18:11:03.849Z,7.80
2024-02-24T18:13:30.991Z,8.07
2024-02-24T18:15:58.289Z,7.90
2024-02-24T18:18:25.474Z,7.40
2024-02-24T18:20:52.763Z,8.50
2024-02-24T18:23:20.200Z,8.25
2024-02-24T18:25:47.335Z,8.13
2024-02-24T18:28:14.558Z,7.82
2024-02-24T18:30:41.809Z,8.45
2024-02-24T18:33:09.067Z,7.70
2024-02-24T18:35:36.302Z,7.88
2024-02-24T18:38:03.535Z,8.55
2024-02-24T18:40:30.824Z,7.30
2024-02-24T18:42:57.962Z,7.95
2024-02-24T18:45:25.254Z,7.90
2024-02-24T18:47:52.610Z,8.38
2024-02-24T18:50:21.757Z,7.53
2024-02-24T18:52:49.002Z,8.15
2024-02-24T18:55:17.586Z,8.25
2024-02-24T18:57:44.828Z,8.95
2024-02-24T19:00:12.240Z,9.00
2024-02-24T19:02:43.153Z,8.55
2024-02-24T19:05:12.101Z,8.50
2024-02-24T19:07:41.816Z,9.07
2024-02-24T19:10:09.119Z,8.50
2024-02-24T19:12:36.271Z,8.23
2024-02-24T19:15:03.586Z,9.02
2024-02-24T19:17:32.779Z,8.50
2024-02-24T19:20:00.218Z,9.30
2024-02-24T19:22:27.494Z,8.65
2024-02-24T19:24:54.648Z,9.60
2024-02-24T19:27:21.768Z,8.75
2024-02-24T19:29:49.084Z,9.10
2024-02-24T19:32:16.416Z,9.05
2024-02-24T19:34:43.574Z,8.50
2024-02-24T19:37:11.157Z,8.50
2024-02-24T19:39:38.491Z,9.18
2024-02-24T19:42:05.918Z,8.77
2024-02-24T19:44:34.936Z,10.88
2024-02-24T19:47:10.344Z,9.52
2024-02-24T19:49:38.123Z,9.20
2024-02-24T19:52:05.690Z,9.25
2024-02-24T19:54:32.836Z,10.00
2024-02-24T19:57:00.238Z,9.90
2024-02-24T19:59:27.467Z,9.10
2024-02-24T20:01:54.724Z,9.32
2024-02-24T20:04:22.070Z,8.32
2024-02-24T20:06:49.687Z,7.93
2024-02-24T20:09:17.920Z,8.52
2024-02-24T20:11:45.315Z,8.00
2024-02-24T20:14:12.595Z,8.82
2024-02-24T20:16:39.731Z,8.43
2024-02-24T20:19:07.314Z,7.75
2024-02-24T20:21:34.693Z,8.32
2024-02-24T20:24:01.902Z,8.10
2024-02-24T20:26:29.349Z,7.82
2024-02-24T20:28:56.512Z,8.30
2024-02-24T20:31:24.425Z,8.38
2024-02-24T20:33:56.661Z,7.40
2024-02-24T20:36:30.678Z,7.78
2024-02-24T20:38:59.847Z,8.20
2024-02-24T20:41:29.887Z,8.00
2024-02-24T20:43:58.771Z,8.35
2024-02-24T20:46:26.235Z,8.15
2024-02-24T20:48:53.599Z,8.25
2024-02-24T20:51:20.854Z,8.30
2024-02-24T20:53:48.119Z,7.47
2024-02-24T20:56:15.379Z,7.97
2024-02-24T20:58:42.590Z,8.50
2024-02-24T21:01:10.104Z,7.88
2024-02-24T21:03:37.460Z,7.60
2024-02-24T21:06:06.243Z,8.10
2024-02-24T21:08:34.979Z,7.60
2024-02-24T21:11:04.082Z,7.28
2024-02-24T21:13:31.879Z,8.63
2024-02-24T21:15:59.525Z,8.27
2024-02-24T21:18:26.952Z,7.75
2024-02-24T21:20:54.943Z,8.45
2024-02-24T21:23:22.238Z,7.88
2024-02-24T21:25:49.385Z,8.38
2024-02-24T21:28:19.673Z,8.57
2024-02-24T21:30:47.204Z,8.52
2024-02-24T21:33:15.138Z,7.85
2024-02-24T21:35:43.216Z,7.60
2024-02-24T21:38:10.503Z,8.88
2024-02-24T21:40:37.711Z,8.65
2024-02-24T21:43:05.732Z,8.45
2024-02-24T21:45:33.005Z,8.38
2024-02-24T21:48:00.647Z,8.27
2024-02-24T21:50:27.986Z,7.78
2024-02-24T21:52:55.413Z,7.75
2024-02-24T21:55:22.623Z,8.18
2024-02-24T21:57:50.066Z,6.95
2024-02-24T22:00:19.822Z,7.53
2024-02-24T22:02:47.185Z,7.00
2024-02-24T22:05:14.636Z,6.68
2024-02-24T22:07:42.368Z,7.80
2024-02-24T22:10:10.269Z,7.85
2024-02-24T22:12:37.540Z,7.80
2024-02-24T22:15:07.344Z,7.38
2024-02-24T22:17:34.757Z,7.75
2024-02-24T22:20:01.995Z,7.78
2024-02-24T22:22:29.222Z,7.47
2024-02-24T22:24:56.345Z,7.82
2024-02-24T22:27:23.857Z,7.00
2024-02-24T22:30:04.312Z,7.72
2024-02-24T22:32:36.308Z,7.57
2024-02-24T22:35:03.702Z,6.13
2024-02-24T22:37:30.944Z,7.07
2024-02-24T22:39:58.097Z,5.88
2024-02-24T22:42:25.403Z,6.72
2024-02-24T22:44:54.847Z,6.13
2024-02-24T22:47:22.211Z,6.53
2024-02-24T22:49:49.590Z,6.05
2024-02-24T22:52:19.865Z,6.25
2024-02-24T22:54:47.262Z,6.53
2024-02-24T22:57:14.510Z,6.53
2024-02-24T22:59:41.690Z,6.47
2024-02-24T23:02:08.923Z,6.30
2024-02-24T23:04:36.256Z,7.57
2024-02-24T23:07:03.484Z,5.72
2024-02-24T23:09:30.629Z,6.43
2024-02-24T23:11:57.996Z,5.90
2024-02-24T23:14:25.319Z,5.97
2024-02-24T23:16:52.594Z,6.10
2024-02-24T23:19:21.166Z,6.07
2024-02-24T23:21:48.590Z,6.10
2024-02-24T23:24:15.753Z,6.13
2024-02-24T23:26:43.083Z,6.35
2024-02-24T23:29:11.551Z,6.85
2024-02-24T23:31:38.864Z,6.10
2024-02-24T23:34:06.266Z,6.97
2024-02-24T23:36:33.632Z,6.97
2024-02-24T23:39:01.207Z,6.47
2024-02-24T23:41:28.572Z,6.22
2024-02-24T23:43:55.784Z,6.63
2024-02-24T23:46:22.965Z,5.95
2024-02-24T23:48:50.429Z,5.88
2024-02-24T23:51:17.651Z,6.40
2024-02-24T23:53:44.879Z,5.82
2024-02-24T23:56:22.103Z,6.40
2024-02-24T23:58:49.848Z,6.40
